AKST,Max TemperatureF,Mean TemperatureF,Min TemperatureF,Max Dew PointF,MeanDew PointF,Min DewpointF,Max Humidity, Mean Humidity, Min Humidity, Max Sea Level PressureIn, Mean Sea Level PressureIn, Min Sea Level PressureIn, Max VisibilityMiles, Mean VisibilityMiles, Min VisibilityMiles, Max Wind SpeedMPH, Mean Wind SpeedMPH, Max Gust SpeedMPH,PrecipitationIn, CloudCover, Events, WindDirDegrees
2011-11-1,46,42,37,45,39,35,93,83,71,30.06,29.65,29.44,10,6,1,32,18,52,1.41,8,Rain,146
2011-11-2,43,38,33,35,30,16,96,76,48,29.83,29.60,29.50,10,10,10,14,7,18,0.00,1,,51
2011-11-3,37,32,28,21,17,13,69,52,39,30.09,30.01,29.87,10,10,10,18,7,23,0.00,0,,91
2011-11-4,42,38,33,37,31,23,93,76,59,29.90,29.53,29.34,10,8,2,25,15,37,0.17,8,Rain-Snow,110
2011-11-5,44,42,39,41,39,37,100,93,82,29.79,29.60,29.39,10,8,3,8,4,,0.28,8,Rain,98
2011-11-6,44,42,39,41,38,34,100,88,71,29.81,29.71,29.61,10,8,2,16,6,23,0.97,8,Rain-Thunderstorm,128
2011-11-7,43,39,35,37,35,28,93,85,56,29.94,29.74,29.66,10,9,4,28,8,38,0.38,8,Rain-Thunderstorm,121
2011-11-8,44,40,36,34,32,30,86,70,60,29.96,29.94,29.91,10,10,10,15,10,23,0.00,8,,109
2011-11-9,44,38,33,36,33,31,93,84,60,29.92,29.81,29.77,10,10,10,10,4,,0.00,4,,82
2011-11-10,45,40,35,45,37,33,100,90,79,29.79,29.48,29.33,10,8,2,26,9,28,0.69,8,Rain,150
2011-11-11,39,36,33,36,35,32,100,93,86,29.64,29.51,29.24,10,9,5,13,4,17,0.26,6,Rain,106
2011-11-12,45,40,36,41,38,33,93,85,68,29.23,28.92,28.76,10,6,1,46,23,63,1.06,8,Rain,257
2011-11-13,41,36,32,36,31,25,100,84,62,29.58,29.42,29.24,10,5,0,33,20,48,0.67,8,Fog-Rain-Snow,285
2011-11-14,37,34,32,36,29,24,100,81,59,29.80,29.72,29.61,10,6,0,40,15,50,0.34,8,Fog-Rain-Snow,309
2011-11-15,37,34,30,34,31,28,100,89,79,29.90,29.82,29.59,10,7,0,24,10,32,0.33,8,Rain-Snow,107
2011-11-16,39,34,30,36,33,30,100,97,82,29.55,29.17,29.04,10,6,1,21,9,29,0.89,8,Rain-Snow,335
2011-11-17,33,30,24,32,26,19,100,86,69,29.89,29.53,29.21,10,8,1,12,4,17,0.18,4,Snow,103
2011-11-18,30,26,21,26,23,21,96,85,72,29.94,29.86,29.78,10,10,10,12,3,,0.00,5,,43
2011-11-19,30,26,21,23,20,15,93,79,69,29.79,29.77,29.68,10,5,0,14,9,20,0.12,8,Fog-Snow,97
2011-11-20,36,28,21,23,19,15,82,67,59,29.65,29.22,28.70,10,10,10,22,10,33,0.00,7,,93
2011-11-21,42,38,33,38,33,23,96,84,59,28.93,28.83,28.64,10,7,1,36,18,64,0.62,7,Rain-Snow,127
2011-11-22,39,34,28,34,30,26,100,88,68,29.02,28.94,28.72,10,5,0,25,13,37,0.26,8,Fog-Rain-Snow,136
2011-11-23,33,29,25,30,25,16,100,84,61,29.04,28.97,28.91,10,4,0,25,17,36,0.18,7,Fog-Snow,134
2011-11-24,36,30,25,31,28,22,100,88,64,29.44,29.08,28.91,10,5,0,28,14,43,0.18,7,Fog-Snow-Thunderstorm,77
2011-11-25,36,32,28,34,30,22,100,89,67,29.71,29.60,29.40,10,5,0,26,12,34,0.36,8,Fog-Rain-Snow,119
2011-11-26,36,32,28,34,31,28,100,92,81,29.51,29.42,29.33,10,10,7,14,5,,0.00,6,Rain-Snow,25
2011-11-27,36,32,28,33,30,27,100,95,75,29.81,29.67,29.53,10,5,0,25,6,36,0.31,8,Fog-Rain-Snow,106
2011-11-28,42,38,34,41,36,33,100,87,76,29.93,29.70,29.47,10,8,2,22,12,32,0.53,8,Rain-Thunderstorm,197
2011-11-29,37,34,30,36,34,30,100,97,86,30.48,30.13,29.93,10,10,6,10,5,,0.02,6,Rain,93
2011-11-30,46,40,35,44,36,29,100,82,58,30.53,30.37,30.02,10,8,2,33,12,48,0.85,8,Rain,126